sensor_id;sensor_type;location;lat;lon;timestamp;P1;durP1;ratioP1;P2;durP2;ratioP2
6517;SDS011;3292;48.944;9.240;2023-08-31T00:01:59;4.83;;;3.10;;
6517;SDS011;3292;48.944;9.240;2023-08-31T00:04:26;3.80;;;3.07;;
6517;SDS011;3292;48.944;9.240;2023-08-31T00:06:53;4.37;;;3.07;;
6517;SDS011;3292;48.944;9.240;2023-08-31T00:09:19;4.70;;;3.10;;
6517;SDS011;3292;48.944;9.240;2023-08-31T00:11:46;4.23;;;3.33;;
6517;SDS011;3292;48.944;9.240;2023-08-31T00:14:14;4.73;;;3.37;;
6517;SDS011;3292;48.944;9.240;2023-08-31T00:16:41;4.57;;;3.67;;
6517;SDS011;3292;48.944;9.240;2023-08-31T00:19:08;4.00;;;3.53;;
6517;SDS011;3292;48.944;9.240;2023-08-31T00:21:35;3.83;;;3.43;;
6517;SDS011;3292;48.944;9.240;2023-08-31T00:24:02;4.53;;;3.53;;
6517;SDS011;3292;48.944;9.240;2023-08-31T00:26:29;3.70;;;3.30;;
6517;SDS011;3292;48.944;9.240;2023-08-31T00:28:56;5.53;;;3.60;;
6517;SDS011;3292;48.944;9.240;2023-08-31T00:31:24;4.67;;;3.93;;
6517;SDS011;3292;48.944;9.240;2023-08-31T00:33:52;4.73;;;3.47;;
6517;SDS011;3292;48.944;9.240;2023-08-31T00:36:19;4.30;;;3.37;;
6517;SDS011;3292;48.944;9.240;2023-08-31T00:38:46;4.97;;;3.97;;
6517;SDS011;3292;48.944;9.240;2023-08-31T00:41:12;3.80;;;3.40;;
6517;SDS011;3292;48.944;9.240;2023-08-31T00:43:39;4.87;;;3.20;;
6517;SDS011;3292;48.944;9.240;2023-08-31T00:46:07;3.53;;;2.93;;
6517;SDS011;3292;48.944;9.240;2023-08-31T00:48:35;3.83;;;3.43;;
6517;SDS011;3292;48.944;9.240;2023-08-31T00:51:02;4.23;;;3.80;;
6517;SDS011;3292;48.944;9.240;2023-08-31T00:53:31;5.50;;;3.67;;
6517;SDS011;3292;48.944;9.240;2023-08-31T00:55:58;6.30;;;3.60;;
6517;SDS011;3292;48.944;9.240;2023-08-31T00:58:25;5.00;;;4.07;;
6517;SDS011;3292;48.944;9.240;2023-08-31T01:00:54;4.67;;;3.70;;
6517;SDS011;3292;48.944;9.240;2023-08-31T01:03:28;6.33;;;4.20;;
6517;SDS011;3292;48.944;9.240;2023-08-31T01:06:09;4.33;;;3.60;;
6517;SDS011;3292;48.944;9.240;2023-08-31T01:08:43;5.60;;;3.87;;
6517;SDS011;3292;48.944;9.240;2023-08-31T01:11:19;5.57;;;3.77;;
6517;SDS011;3292;48.944;9.240;2023-08-31T01:13:58;3.87;;;3.30;;
6517;SDS011;3292;48.944;9.240;2023-08-31T01:16:29;5.70;;;4.03;;
6517;SDS011;3292;48.944;9.240;2023-08-31T01:18:58;3.63;;;3.17;;
6517;SDS011;3292;48.944;9.240;2023-08-31T01:21:30;5.43;;;4.20;;
6517;SDS011;3292;48.944;9.240;2023-08-31T01:24:05;4.83;;;4.30;;
6517;SDS011;3292;48.944;9.240;2023-08-31T01:26:33;4.40;;;4.00;;
6517;SDS011;3292;48.944;9.240;2023-08-31T01:29:00;4.50;;;3.73;;
6517;SDS011;3292;48.944;9.240;2023-08-31T01:31:28;5.40;;;3.60;;
6517;SDS011;3292;48.944;9.240;2023-08-31T01:33:55;4.33;;;3.77;;
6517;SDS011;3292;48.944;9.240;2023-08-31T01:36:23;4.60;;;3.97;;
6517;SDS011;3292;48.944;9.240;2023-08-31T01:38:54;5.37;;;3.70;;
6517;SDS011;3292;48.944;9.240;2023-08-31T01:41:25;7.57;;;3.90;;
6517;SDS011;3292;48.944;9.240;2023-08-31T01:43:55;5.73;;;3.80;;
6517;SDS011;3292;48.944;9.240;2023-08-31T01:46:22;4.00;;;3.50;;
6517;SDS011;3292;48.944;9.240;2023-08-31T01:48:49;5.30;;;3.57;;
6517;SDS011;3292;48.944;9.240;2023-08-31T01:51:16;4.83;;;3.90;;
6517;SDS011;3292;48.944;9.240;2023-08-31T01:53:43;4.20;;;3.60;;
6517;SDS011;3292;48.944;9.240;2023-08-31T01:56:11;4.33;;;3.57;;
6517;SDS011;3292;48.944;9.240;2023-08-31T01:58:40;4.47;;;3.60;;
6517;SDS011;3292;48.944;9.240;2023-08-31T02:01:07;5.43;;;3.77;;
6517;SDS011;3292;48.944;9.240;2023-08-31T02:03:33;4.63;;;3.60;;
6517;SDS011;3292;48.944;9.240;2023-08-31T02:06:00;4.03;;;3.60;;
6517;SDS011;3292;48.944;9.240;2023-08-31T02:08:28;5.30;;;4.00;;
6517;SDS011;3292;48.944;9.240;2023-08-31T02:10:55;5.63;;;3.63;;
6517;SDS011;3292;48.944;9.240;2023-08-31T02:13:22;6.20;;;4.17;;
6517;SDS011;3292;48.944;9.240;2023-08-31T02:15:52;8.27;;;3.87;;
6517;SDS011;3292;48.944;9.240;2023-08-31T02:18:20;4.70;;;3.80;;
6517;SDS011;3292;48.944;9.240;2023-08-31T02:20:47;4.67;;;3.90;;
6517;SDS011;3292;48.944;9.240;2023-08-31T02:23:13;7.67;;;4.30;;
6517;SDS011;3292;48.944;9.240;2023-08-31T02:25:40;5.23;;;3.30;;
6517;SDS011;3292;48.944;9.240;2023-08-31T02:28:07;6.13;;;3.40;;
6517;SDS011;3292;48.944;9.240;2023-08-31T02:30:34;5.13;;;3.97;;
6517;SDS011;3292;48.944;9.240;2023-08-31T02:33:02;4.60;;;3.70;;
6517;SDS011;3292;48.944;9.240;2023-08-31T02:35:29;4.30;;;3.70;;
6517;SDS011;3292;48.944;9.240;2023-08-31T02:37:56;3.80;;;3.50;;
6517;SDS011;3292;48.944;9.240;2023-08-31T02:40:23;4.83;;;3.87;;
6517;SDS011;3292;48.944;9.240;2023-08-31T02:42:50;6.17;;;3.43;;
6517;SDS011;3292;48.944;9.240;2023-08-31T02:45:17;5.73;;;3.80;;
6517;SDS011;3292;48.944;9.240;2023-08-31T02:47:44;4.73;;;3.60;;
6517;SDS011;3292;48.944;9.240;2023-08-31T02:50:12;4.10;;;3.43;;
6517;SDS011;3292;48.944;9.240;2023-08-31T02:52:39;4.20;;;3.77;;
6517;SDS011;3292;48.944;9.240;2023-08-31T02:55:07;4.53;;;4.13;;
6517;SDS011;3292;48.944;9.240;2023-08-31T02:57:35;4.53;;;3.80;;
6517;SDS011;3292;48.944;9.240;2023-08-31T03:00:02;4.10;;;3.60;;
6517;SDS011;3292;48.944;9.240;2023-08-31T03:02:34;4.40;;;4.00;;
6517;SDS011;3292;48.944;9.240;2023-08-31T03:05:00;4.87;;;3.30;;
6517;SDS011;3292;48.944;9.240;2023-08-31T03:07:29;6.70;;;3.60;;
6517;SDS011;3292;48.944;9.240;2023-08-31T03:09:56;4.10;;;3.37;;
6517;SDS011;3292;48.944;9.240;2023-08-31T03:12:23;3.93;;;3.53;;
6517;SDS011;3292;48.944;9.240;2023-08-31T03:14:50;6.87;;;3.70;;
6517;SDS011;3292;48.944;9.240;2023-08-31T03:17:15;5.60;;;3.50;;
6517;SDS011;3292;48.944;9.240;2023-08-31T03:19:42;4.43;;;3.50;;
6517;SDS011;3292;48.944;9.240;2023-08-31T03:22:09;3.87;;;3.17;;
6517;SDS011;3292;48.944;9.240;2023-08-31T03:24:37;5.73;;;3.70;;
6517;SDS011;3292;48.944;9.240;2023-08-31T03:27:04;4.43;;;3.67;;
6517;SDS011;3292;48.944;9.240;2023-08-31T03:29:31;4.20;;;3.70;;
6517;SDS011;3292;48.944;9.240;2023-08-31T03:31:59;3.80;;;3.40;;
6517;SDS011;3292;48.944;9.240;2023-08-31T03:34:28;9.47;;;4.20;;
6517;SDS011;3292;48.944;9.240;2023-08-31T03:36:55;5.40;;;3.90;;
6517;SDS011;3292;48.944;9.240;2023-08-31T03:39:22;4.53;;;3.33;;
6517;SDS011;3292;48.944;9.240;2023-08-31T03:41:51;6.87;;;3.60;;
6517;SDS011;3292;48.944;9.240;2023-08-31T03:44:17;4.03;;;3.50;;
6517;SDS011;3292;48.944;9.240;2023-08-31T03:46:46;4.00;;;3.30;;
6517;SDS011;3292;48.944;9.240;2023-08-31T03:49:12;4.03;;;3.37;;
6517;SDS011;3292;48.944;9.240;2023-08-31T03:51:39;5.80;;;3.20;;
6517;SDS011;3292;48.944;9.240;2023-08-31T03:54:06;5.80;;;3.37;;
6517;SDS011;3292;48.944;9.240;2023-08-31T03:56:33;3.63;;;3.00;;
6517;SDS011;3292;48.944;9.240;2023-08-31T03:59:02;4.10;;;3.70;;
6517;SDS011;3292;48.944;9.240;2023-08-31T04:01:29;3.43;;;3.13;;
6517;SDS011;3292;48.944;9.240;2023-08-31T04:03:56;3.70;;;2.93;;
6517;SDS011;3292;48.944;9.240;2023-08-31T04:06:23;3.87;;;3.50;;
6517;SDS011;3292;48.944;9.240;2023-08-31T04:08:50;3.83;;;3.40;;
6517;SDS011;3292;48.944;9.240;2023-08-31T04:11:17;3.83;;;3.43;;
6517;SDS011;3292;48.944;9.240;2023-08-31T04:13:43;3.70;;;3.40;;
6517;SDS011;3292;48.944;9.240;2023-08-31T04:16:12;3.73;;;3.37;;
6517;SDS011;3292;48.944;9.240;2023-08-31T04:18:38;4.60;;;3.40;;
6517;SDS011;3292;48.944;9.240;2023-08-31T04:21:05;4.37;;;3.30;;
6517;SDS011;3292;48.944;9.240;2023-08-31T04:23:32;4.60;;;3.50;;
6517;SDS011;3292;48.944;9.240;2023-08-31T04:25:59;7.50;;;3.20;;
6517;SDS011;3292;48.944;9.240;2023-08-31T04:28:26;3.63;;;3.23;;
6517;SDS011;3292;48.944;9.240;2023-08-31T04:30:53;4.37;;;3.20;;
6517;SDS011;3292;48.944;9.240;2023-08-31T04:33:21;3.90;;;3.20;;
6517;SDS011;3292;48.944;9.240;2023-08-31T04:35:48;4.03;;;3.27;;
6517;SDS011;3292;48.944;9.240;2023-08-31T04:38:14;7.03;;;3.60;;
6517;SDS011;3292;48.944;9.240;2023-08-31T04:40:42;6.67;;;3.47;;
6517;SDS011;3292;48.944;9.240;2023-08-31T04:43:09;7.47;;;3.30;;
6517;SDS011;3292;48.944;9.240;2023-08-31T04:45:36;6.33;;;3.50;;
6517;SDS011;3292;48.944;9.240;2023-08-31T04:48:03;6.50;;;3.20;;
6517;SDS011;3292;48.944;9.240;2023-08-31T04:50:32;4.47;;;3.73;;
6517;SDS011;3292;48.944;9.240;2023-08-31T04:52:58;4.00;;;3.60;;
6517;SDS011;3292;48.944;9.240;2023-08-31T04:55:25;7.20;;;4.20;;
6517;SDS011;3292;48.944;9.240;2023-08-31T04:57:52;7.93;;;3.87;;
6517;SDS011;3292;48.944;9.240;2023-08-31T05:00:19;3.77;;;3.40;;
6517;SDS011;3292;48.944;9.240;2023-08-31T05:02:46;5.07;;;3.57;;
6517;SDS011;3292;48.944;9.240;2023-08-31T05:05:12;3.70;;;3.30;;
6517;SDS011;3292;48.944;9.240;2023-08-31T05:07:41;4.50;;;3.43;;
6517;SDS011;3292;48.944;9.240;2023-08-31T05:10:08;5.60;;;3.97;;
6517;SDS011;3292;48.944;9.240;2023-08-31T05:12:36;5.90;;;3.40;;
6517;SDS011;3292;48.944;9.240;2023-08-31T05:15:03;4.83;;;3.50;;
6517;SDS011;3292;48.944;9.240;2023-08-31T05:17:30;4.83;;;3.63;;
6517;SDS011;3292;48.944;9.240;2023-08-31T05:19:57;3.50;;;3.20;;
6517;SDS011;3292;48.944;9.240;2023-08-31T05:22:24;4.97;;;3.30;;
6517;SDS011;3292;48.944;9.240;2023-08-31T05:24:52;6.93;;;3.40;;
6517;SDS011;3292;48.944;9.240;2023-08-31T05:27:19;7.13;;;3.30;;
6517;SDS011;3292;48.944;9.240;2023-08-31T05:29:46;2.80;;;2.50;;
6517;SDS011;3292;48.944;9.240;2023-08-31T05:32:13;3.67;;;3.23;;
6517;SDS011;3292;48.944;9.240;2023-08-31T05:34:39;3.90;;;3.13;;
6517;SDS011;3292;48.944;9.240;2023-08-31T05:37:06;5.10;;;3.40;;
6517;SDS011;3292;48.944;9.240;2023-08-31T05:39:34;6.53;;;3.53;;
6517;SDS011;3292;48.944;9.240;2023-08-31T05:42:02;4.17;;;3.27;;
6517;SDS011;3292;48.944;9.240;2023-08-31T05:44:29;6.10;;;4.00;;
6517;SDS011;3292;48.944;9.240;2023-08-31T05:46:56;4.00;;;3.60;;
6517;SDS011;3292;48.944;9.240;2023-08-31T05:49:22;5.80;;;3.93;;
6517;SDS011;3292;48.944;9.240;2023-08-31T05:51:49;5.90;;;3.30;;
6517;SDS011;3292;48.944;9.240;2023-08-31T05:54:16;6.23;;;4.17;;
6517;SDS011;3292;48.944;9.240;2023-08-31T05:56:43;4.87;;;3.57;;
6517;SDS011;3292;48.944;9.240;2023-08-31T05:59:11;7.47;;;5.60;;
6517;SDS011;3292;48.944;9.240;2023-08-31T06:01:38;6.27;;;4.93;;
6517;SDS011;3292;48.944;9.240;2023-08-31T06:04:05;4.37;;;3.73;;
6517;SDS011;3292;48.944;9.240;2023-08-31T06:06:32;4.40;;;3.83;;
6517;SDS011;3292;48.944;9.240;2023-08-31T06:08:59;8.00;;;5.50;;
6517;SDS011;3292;48.944;9.240;2023-08-31T06:11:25;7.40;;;5.00;;
6517;SDS011;3292;48.944;9.240;2023-08-31T06:13:52;6.67;;;5.10;;
6517;SDS011;3292;48.944;9.240;2023-08-31T06:16:20;4.87;;;4.43;;
6517;SDS011;3292;48.944;9.240;2023-08-31T06:18:47;5.57;;;4.30;;
6517;SDS011;3292;48.944;9.240;2023-08-31T06:21:14;5.77;;;5.27;;
6517;SDS011;3292;48.944;9.240;2023-08-31T06:23:41;7.10;;;6.43;;
6517;SDS011;3292;48.944;9.240;2023-08-31T06:26:08;7.33;;;6.53;;
6517;SDS011;3292;48.944;9.240;2023-08-31T06:28:35;9.80;;;7.20;;
6517;SDS011;3292;48.944;9.240;2023-08-31T06:31:02;7.87;;;6.90;;
6517;SDS011;3292;48.944;9.240;2023-08-31T06:33:30;8.10;;;6.47;;
6517;SDS011;3292;48.944;9.240;2023-08-31T06:35:57;6.13;;;5.53;;
6517;SDS011;3292;48.944;9.240;2023-08-31T06:38:24;5.97;;;4.57;;
6517;SDS011;3292;48.944;9.240;2023-08-31T06:40:51;8.90;;;4.17;;
6517;SDS011;3292;48.944;9.240;2023-08-31T06:43:19;4.40;;;3.27;;
6517;SDS011;3292;48.944;9.240;2023-08-31T06:45:46;3.67;;;3.30;;
6517;SDS011;3292;48.944;9.240;2023-08-31T06:48:13;4.67;;;3.00;;
6517;SDS011;3292;48.944;9.240;2023-08-31T06:50:41;4.30;;;3.10;;
6517;SDS011;3292;48.944;9.240;2023-08-31T06:53:08;3.33;;;2.97;;
6517;SDS011;3292;48.944;9.240;2023-08-31T06:55:35;3.23;;;2.83;;
6517;SDS011;3292;48.944;9.240;2023-08-31T06:58:02;3.37;;;2.90;;
6517;SDS011;3292;48.944;9.240;2023-08-31T07:00:29;7.33;;;3.30;;
6517;SDS011;3292;48.944;9.240;2023-08-31T07:02:57;3.53;;;2.97;;
6517;SDS011;3292;48.944;9.240;2023-08-31T07:05:24;3.97;;;3.00;;
6517;SDS011;3292;48.944;9.240;2023-08-31T07:07:55;3.30;;;3.00;;
6517;SDS011;3292;48.944;9.240;2023-08-31T07:10:23;4.87;;;2.93;;
6517;SDS011;3292;48.944;9.240;2023-08-31T07:12:50;6.00;;;3.10;;
6517;SDS011;3292;48.944;9.240;2023-08-31T07:15:17;4.47;;;3.10;;
6517;SDS011;3292;48.944;9.240;2023-08-31T07:17:43;5.00;;;2.80;;
6517;SDS011;3292;48.944;9.240;2023-08-31T07:20:11;5.07;;;3.00;;
6517;SDS011;3292;48.944;9.240;2023-08-31T07:22:38;5.13;;;3.17;;
6517;SDS011;3292;48.944;9.240;2023-08-31T07:25:07;3.47;;;2.83;;
6517;SDS011;3292;48.944;9.240;2023-08-31T07:27:34;3.80;;;2.97;;
6517;SDS011;3292;48.944;9.240;2023-08-31T07:30:01;5.00;;;2.80;;
6517;SDS011;3292;48.944;9.240;2023-08-31T07:32:29;5.17;;;3.10;;
6517;SDS011;3292;48.944;9.240;2023-08-31T07:34:56;3.90;;;2.60;;
6517;SDS011;3292;48.944;9.240;2023-08-31T07:37:22;4.97;;;2.67;;
6517;SDS011;3292;48.944;9.240;2023-08-31T07:39:49;6.70;;;3.07;;
6517;SDS011;3292;48.944;9.240;2023-08-31T07:42:18;6.10;;;2.87;;
6517;SDS011;3292;48.944;9.240;2023-08-31T07:44:45;3.93;;;2.67;;
6517;SDS011;3292;48.944;9.240;2023-08-31T07:47:11;5.27;;;2.60;;
6517;SDS011;3292;48.944;9.240;2023-08-31T07:49:38;5.10;;;2.50;;
6517;SDS011;3292;48.944;9.240;2023-08-31T07:52:05;3.23;;;2.40;;
6517;SDS011;3292;48.944;9.240;2023-08-31T07:54:32;2.77;;;2.43;;
6517;SDS011;3292;48.944;9.240;2023-08-31T07:56:59;5.00;;;2.47;;
6517;SDS011;3292;48.944;9.240;2023-08-31T07:59:27;2.63;;;2.20;;
6517;SDS011;3292;48.944;9.240;2023-08-31T08:01:54;4.43;;;2.40;;
6517;SDS011;3292;48.944;9.240;2023-08-31T08:04:21;3.33;;;2.10;;
6517;SDS011;3292;48.944;9.240;2023-08-31T08:06:49;4.43;;;2.20;;
6517;SDS011;3292;48.944;9.240;2023-08-31T08:09:16;7.57;;;2.40;;
6517;SDS011;3292;48.944;9.240;2023-08-31T08:11:43;5.00;;;2.37;;
6517;SDS011;3292;48.944;9.240;2023-08-31T08:14:10;4.90;;;2.30;;
6517;SDS011;3292;48.944;9.240;2023-08-31T08:16:38;6.47;;;2.60;;
6517;SDS011;3292;48.944;9.240;2023-08-31T08:19:05;4.80;;;2.53;;
6517;SDS011;3292;48.944;9.240;2023-08-31T08:21:33;3.90;;;2.90;;
6517;SDS011;3292;48.944;9.240;2023-08-31T08:24:00;3.87;;;2.40;;
6517;SDS011;3292;48.944;9.240;2023-08-31T08:26:28;4.43;;;2.40;;
6517;SDS011;3292;48.944;9.240;2023-08-31T08:28:54;4.93;;;2.50;;
6517;SDS011;3292;48.944;9.240;2023-08-31T08:31:21;3.57;;;2.17;;
6517;SDS011;3292;48.944;9.240;2023-08-31T08:33:49;3.70;;;2.27;;
6517;SDS011;3292;48.944;9.240;2023-08-31T08:36:16;4.67;;;2.40;;
6517;SDS011;3292;48.944;9.240;2023-08-31T08:38:43;4.37;;;2.43;;
6517;SDS011;3292;48.944;9.240;2023-08-31T08:41:10;5.20;;;2.43;;
6517;SDS011;3292;48.944;9.240;2023-08-31T08:43:36;7.70;;;2.70;;
6517;SDS011;3292;48.944;9.240;2023-08-31T08:46:06;4.70;;;2.30;;
6517;SDS011;3292;48.944;9.240;2023-08-31T08:48:32;4.77;;;2.50;;
6517;SDS011;3292;48.944;9.240;2023-08-31T08:51:02;3.73;;;2.10;;
6517;SDS011;3292;48.944;9.240;2023-08-31T08:53:30;3.30;;;2.27;;
6517;SDS011;3292;48.944;9.240;2023-08-31T08:55:56;6.97;;;2.73;;
6517;SDS011;3292;48.944;9.240;2023-08-31T08:58:24;4.17;;;2.70;;
6517;SDS011;3292;48.944;9.240;2023-08-31T09:00:51;5.10;;;2.57;;
6517;SDS011;3292;48.944;9.240;2023-08-31T09:03:20;3.17;;;2.10;;
6517;SDS011;3292;48.944;9.240;2023-08-31T09:05:47;4.70;;;2.37;;
6517;SDS011;3292;48.944;9.240;2023-08-31T09:08:15;5.23;;;2.67;;
6517;SDS011;3292;48.944;9.240;2023-08-31T09:10:43;5.30;;;2.70;;
6517;SDS011;3292;48.944;9.240;2023-08-31T09:13:10;7.80;;;2.60;;
6517;SDS011;3292;48.944;9.240;2023-08-31T09:15:39;4.90;;;2.47;;
6517;SDS011;3292;48.944;9.240;2023-08-31T09:18:06;3.87;;;2.50;;
6517;SDS011;3292;48.944;9.240;2023-08-31T09:20:42;3.97;;;2.50;;
6517;SDS011;3292;48.944;9.240;2023-08-31T09:23:09;3.87;;;2.30;;
6517;SDS011;3292;48.944;9.240;2023-08-31T09:25:39;8.10;;;2.50;;
6517;SDS011;3292;48.944;9.240;2023-08-31T09:28:07;5.00;;;2.40;;
6517;SDS011;3292;48.944;9.240;2023-08-31T09:30:34;5.73;;;2.60;;
6517;SDS011;3292;48.944;9.240;2023-08-31T09:33:02;4.53;;;2.30;;
6517;SDS011;3292;48.944;9.240;2023-08-31T09:35:30;5.40;;;2.37;;
6517;SDS011;3292;48.944;9.240;2023-08-31T09:37:57;3.30;;;2.50;;
6517;SDS011;3292;48.944;9.240;2023-08-31T09:40:24;4.87;;;2.40;;
6517;SDS011;3292;48.944;9.240;2023-08-31T09:42:52;4.27;;;2.70;;
6517;SDS011;3292;48.944;9.240;2023-08-31T09:45:24;5.03;;;2.50;;
6517;SDS011;3292;48.944;9.240;2023-08-31T09:47:55;4.23;;;2.73;;
6517;SDS011;3292;48.944;9.240;2023-08-31T09:50:22;4.70;;;2.53;;
6517;SDS011;3292;48.944;9.240;2023-08-31T09:52:51;4.03;;;2.23;;
6517;SDS011;3292;48.944;9.240;2023-08-31T09:55:23;3.70;;;2.30;;
6517;SDS011;3292;48.944;9.240;2023-08-31T09:57:54;4.57;;;2.43;;
6517;SDS011;3292;48.944;9.240;2023-08-31T10:00:22;3.40;;;2.30;;
6517;SDS011;3292;48.944;9.240;2023-08-31T10:02:50;2.87;;;2.50;;
6517;SDS011;3292;48.944;9.240;2023-08-31T10:05:18;3.27;;;2.47;;
6517;SDS011;3292;48.944;9.240;2023-08-31T10:07:45;6.13;;;2.57;;
6517;SDS011;3292;48.944;9.240;2023-08-31T10:10:14;5.00;;;2.63;;
6517;SDS011;3292;48.944;9.240;2023-08-31T10:12:41;2.73;;;2.33;;
6517;SDS011;3292;48.944;9.240;2023-08-31T10:15:11;2.70;;;2.33;;
6517;SDS011;3292;48.944;9.240;2023-08-31T10:17:39;4.97;;;2.10;;
6517;SDS011;3292;48.944;9.240;2023-08-31T10:20:06;4.83;;;2.50;;
6517;SDS011;3292;48.944;9.240;2023-08-31T10:22:37;3.30;;;2.40;;
6517;SDS011;3292;48.944;9.240;2023-08-31T10:25:04;3.53;;;2.13;;
6517;SDS011;3292;48.944;9.240;2023-08-31T10:27:36;3.30;;;2.30;;
6517;SDS011;3292;48.944;9.240;2023-08-31T10:35:51;3.73;;;2.30;;
6517;SDS011;3292;48.944;9.240;2023-08-31T10:38:24;3.37;;;2.17;;
6517;SDS011;3292;48.944;9.240;2023-08-31T10:40:59;3.43;;;2.13;;
6517;SDS011;3292;48.944;9.240;2023-08-31T10:43:44;4.80;;;2.20;;
6517;SDS011;3292;48.944;9.240;2023-08-31T10:46:28;4.30;;;2.70;;
6517;SDS011;3292;48.944;9.240;2023-08-31T10:48:57;4.40;;;2.20;;
6517;SDS011;3292;48.944;9.240;2023-08-31T10:51:25;4.40;;;2.27;;
6517;SDS011;3292;48.944;9.240;2023-08-31T10:54:03;3.27;;;2.20;;
6517;SDS011;3292;48.944;9.240;2023-08-31T10:56:31;3.03;;;2.00;;
6517;SDS011;3292;48.944;9.240;2023-08-31T10:58:58;4.33;;;2.40;;
6517;SDS011;3292;48.944;9.240;2023-08-31T11:04:19;6.57;;;2.60;;
6517;SDS011;3292;48.944;9.240;2023-08-31T11:06:46;3.80;;;2.43;;
6517;SDS011;3292;48.944;9.240;2023-08-31T11:09:18;4.67;;;2.40;;
6517;SDS011;3292;48.944;9.240;2023-08-31T11:11:45;4.53;;;2.27;;
6517;SDS011;3292;48.944;9.240;2023-08-31T11:14:12;4.40;;;2.50;;
6517;SDS011;3292;48.944;9.240;2023-08-31T11:16:40;3.87;;;2.40;;
6517;SDS011;3292;48.944;9.240;2023-08-31T11:19:10;4.73;;;2.87;;
6517;SDS011;3292;48.944;9.240;2023-08-31T11:21:37;3.93;;;2.37;;
6517;SDS011;3292;48.944;9.240;2023-08-31T11:24:07;8.23;;;2.73;;
6517;SDS011;3292;48.944;9.240;2023-08-31T11:26:34;3.90;;;2.63;;
6517;SDS011;3292;48.944;9.240;2023-08-31T11:29:01;4.20;;;2.47;;
6517;SDS011;3292;48.944;9.240;2023-08-31T11:31:31;4.57;;;2.50;;
6517;SDS011;3292;48.944;9.240;2023-08-31T11:33:58;5.30;;;2.80;;
6517;SDS011;3292;48.944;9.240;2023-08-31T11:36:26;6.50;;;3.10;;
6517;SDS011;3292;48.944;9.240;2023-08-31T11:38:53;6.80;;;2.63;;
6517;SDS011;3292;48.944;9.240;2023-08-31T11:41:20;5.97;;;2.90;;
6517;SDS011;3292;48.944;9.240;2023-08-31T11:43:47;5.57;;;2.80;;
6517;SDS011;3292;48.944;9.240;2023-08-31T11:46:15;4.97;;;2.40;;
6517;SDS011;3292;48.944;9.240;2023-08-31T11:48:43;3.30;;;2.40;;
6517;SDS011;3292;48.944;9.240;2023-08-31T11:51:10;5.97;;;2.93;;
6517;SDS011;3292;48.944;9.240;2023-08-31T11:53:39;3.87;;;2.60;;
6517;SDS011;3292;48.944;9.240;2023-08-31T11:56:05;6.20;;;2.77;;
6517;SDS011;3292;48.944;9.240;2023-08-31T11:58:33;5.70;;;2.60;;
6517;SDS011;3292;48.944;9.240;2023-08-31T12:01:07;3.80;;;2.47;;
6517;SDS011;3292;48.944;9.240;2023-08-31T12:03:42;5.73;;;2.60;;
6517;SDS011;3292;48.944;9.240;2023-08-31T12:06:10;6.97;;;2.73;;
6517;SDS011;3292;48.944;9.240;2023-08-31T12:08:38;4.40;;;2.50;;
6517;SDS011;3292;48.944;9.240;2023-08-31T12:11:06;8.07;;;2.80;;
6517;SDS011;3292;48.944;9.240;2023-08-31T12:13:32;5.30;;;2.57;;
6517;SDS011;3292;48.944;9.240;2023-08-31T12:15:59;5.97;;;2.43;;
6517;SDS011;3292;48.944;9.240;2023-08-31T12:18:29;5.03;;;2.40;;
6517;SDS011;3292;48.944;9.240;2023-08-31T12:20:56;4.87;;;2.50;;
6517;SDS011;3292;48.944;9.240;2023-08-31T12:23:23;5.67;;;2.87;;
6517;SDS011;3292;48.944;9.240;2023-08-31T12:25:52;5.93;;;2.73;;
6517;SDS011;3292;48.944;9.240;2023-08-31T12:28:20;4.97;;;2.57;;
6517;SDS011;3292;48.944;9.240;2023-08-31T12:30:48;4.70;;;2.53;;
6517;SDS011;3292;48.944;9.240;2023-08-31T12:33:16;5.97;;;2.73;;
6517;SDS011;3292;48.944;9.240;2023-08-31T12:35:44;4.47;;;2.50;;
6517;SDS011;3292;48.944;9.240;2023-08-31T12:38:11;7.47;;;2.80;;
6517;SDS011;3292;48.944;9.240;2023-08-31T12:40:38;5.03;;;2.53;;
6517;SDS011;3292;48.944;9.240;2023-08-31T12:43:06;6.70;;;2.57;;
6517;SDS011;3292;48.944;9.240;2023-08-31T12:45:33;4.37;;;2.53;;
6517;SDS011;3292;48.944;9.240;2023-08-31T12:48:00;7.03;;;2.77;;
6517;SDS011;3292;48.944;9.240;2023-08-31T12:50:26;6.30;;;2.50;;
6517;SDS011;3292;48.944;9.240;2023-08-31T12:52:53;5.30;;;2.50;;
6517;SDS011;3292;48.944;9.240;2023-08-31T12:55:20;3.27;;;2.20;;
6517;SDS011;3292;48.944;9.240;2023-08-31T12:57:47;4.33;;;2.63;;
6517;SDS011;3292;48.944;9.240;2023-08-31T13:00:15;6.00;;;2.87;;
6517;SDS011;3292;48.944;9.240;2023-08-31T13:02:43;3.27;;;2.50;;
6517;SDS011;3292;48.944;9.240;2023-08-31T13:05:10;4.50;;;2.80;;
6517;SDS011;3292;48.944;9.240;2023-08-31T13:07:37;5.80;;;2.60;;
6517;SDS011;3292;48.944;9.240;2023-08-31T13:10:05;3.60;;;2.40;;
6517;SDS011;3292;48.944;9.240;2023-08-31T13:12:32;4.03;;;2.43;;
6517;SDS011;3292;48.944;9.240;2023-08-31T13:14:59;3.63;;;2.50;;
6517;SDS011;3292;48.944;9.240;2023-08-31T13:17:28;6.13;;;2.87;;
6517;SDS011;3292;48.944;9.240;2023-08-31T13:19:55;5.50;;;2.77;;
6517;SDS011;3292;48.944;9.240;2023-08-31T13:22:23;3.77;;;2.70;;
6517;SDS011;3292;48.944;9.240;2023-08-31T13:24:51;4.37;;;2.40;;
6517;SDS011;3292;48.944;9.240;2023-08-31T13:27:17;3.83;;;2.33;;
6517;SDS011;3292;48.944;9.240;2023-08-31T13:29:44;4.20;;;2.43;;
6517;SDS011;3292;48.944;9.240;2023-08-31T13:32:11;6.67;;;2.30;;
6517;SDS011;3292;48.944;9.240;2023-08-31T13:34:39;5.60;;;2.80;;
6517;SDS011;3292;48.944;9.240;2023-08-31T13:37:06;4.97;;;2.70;;
6517;SDS011;3292;48.944;9.240;2023-08-31T13:39:34;4.40;;;2.43;;
6517;SDS011;3292;48.944;9.240;2023-08-31T13:42:02;4.97;;;2.63;;
6517;SDS011;3292;48.944;9.240;2023-08-31T13:44:29;4.83;;;2.63;;
6517;SDS011;3292;48.944;9.240;2023-08-31T13:46:56;6.70;;;2.80;;
6517;SDS011;3292;48.944;9.240;2023-08-31T13:49:23;3.70;;;2.50;;
6517;SDS011;3292;48.944;9.240;2023-08-31T13:51:51;5.67;;;2.63;;
6517;SDS011;3292;48.944;9.240;2023-08-31T13:54:18;3.93;;;2.60;;
6517;SDS011;3292;48.944;9.240;2023-08-31T13:56:45;4.77;;;2.50;;
6517;SDS011;3292;48.944;9.240;2023-08-31T13:59:12;6.70;;;2.27;;
6517;SDS011;3292;48.944;9.240;2023-08-31T14:01:38;4.07;;;2.40;;
6517;SDS011;3292;48.944;9.240;2023-08-31T14:04:05;5.73;;;2.50;;
6517;SDS011;3292;48.944;9.240;2023-08-31T14:06:32;4.53;;;2.50;;
6517;SDS011;3292;48.944;9.240;2023-08-31T14:09:00;6.20;;;2.63;;
6517;SDS011;3292;48.944;9.240;2023-08-31T14:11:28;4.07;;;2.50;;
6517;SDS011;3292;48.944;9.240;2023-08-31T14:14:00;5.37;;;2.80;;
6517;SDS011;3292;48.944;9.240;2023-08-31T14:16:30;6.43;;;2.50;;
6517;SDS011;3292;48.944;9.240;2023-08-31T14:18:57;3.40;;;2.47;;
6517;SDS011;3292;48.944;9.240;2023-08-31T14:21:24;3.30;;;2.43;;
6517;SDS011;3292;48.944;9.240;2023-08-31T14:23:50;4.87;;;2.40;;
6517;SDS011;3292;48.944;9.240;2023-08-31T14:26:22;5.20;;;2.80;;
6517;SDS011;3292;48.944;9.240;2023-08-31T14:28:49;5.30;;;2.37;;
6517;SDS011;3292;48.944;9.240;2023-08-31T14:31:16;4.87;;;2.83;;
6517;SDS011;3292;48.944;9.240;2023-08-31T14:33:43;4.10;;;2.67;;
6517;SDS011;3292;48.944;9.240;2023-08-31T14:36:11;4.70;;;2.60;;
6517;SDS011;3292;48.944;9.240;2023-08-31T14:38:40;4.07;;;2.50;;
6517;SDS011;3292;48.944;9.240;2023-08-31T14:41:07;4.23;;;2.50;;
6517;SDS011;3292;48.944;9.240;2023-08-31T14:43:35;5.50;;;2.40;;
6517;SDS011;3292;48.944;9.240;2023-08-31T14:46:02;4.97;;;2.70;;
6517;SDS011;3292;48.944;9.240;2023-08-31T14:48:29;4.37;;;2.37;;
6517;SDS011;3292;48.944;9.240;2023-08-31T14:50:56;4.57;;;2.50;;
6517;SDS011;3292;48.944;9.240;2023-08-31T14:53:23;6.13;;;2.80;;
6517;SDS011;3292;48.944;9.240;2023-08-31T14:55:50;4.37;;;2.77;;
6517;SDS011;3292;48.944;9.240;2023-08-31T14:58:17;4.77;;;2.33;;
6517;SDS011;3292;48.944;9.240;2023-08-31T15:00:46;6.23;;;2.77;;
6517;SDS011;3292;48.944;9.240;2023-08-31T15:03:13;4.60;;;2.73;;
6517;SDS011;3292;48.944;9.240;2023-08-31T15:05:40;4.77;;;2.63;;
6517;SDS011;3292;48.944;9.240;2023-08-31T15:08:07;4.87;;;2.70;;
6517;SDS011;3292;48.944;9.240;2023-08-31T15:10:37;4.70;;;2.70;;
6517;SDS011;3292;48.944;9.240;2023-08-31T15:13:04;7.37;;;2.70;;
6517;SDS011;3292;48.944;9.240;2023-08-31T15:15:31;4.33;;;2.10;;
6517;SDS011;3292;48.944;9.240;2023-08-31T15:18:00;5.83;;;2.60;;
6517;SDS011;3292;48.944;9.240;2023-08-31T15:20:27;4.37;;;2.60;;
6517;SDS011;3292;48.944;9.240;2023-08-31T15:22:54;3.00;;;2.40;;
6517;SDS011;3292;48.944;9.240;2023-08-31T15:25:21;5.30;;;2.60;;
6517;SDS011;3292;48.944;9.240;2023-08-31T15:27:48;3.90;;;2.40;;